createdAt,value
2023-01-01T00:04:27.898Z,32.09
2023-01-01T00:05:27.887Z,32.10
2023-01-01T00:06:27.894Z,32.10
2023-01-01T00:07:27.897Z,32.10
2023-01-01T00:54:40.266Z,33.43
2023-01-01T00:55:41.178Z,32.58
2023-01-01T00:56:41.170Z,32.42
2023-01-01T00:57:41.165Z,32.30
2023-01-01T00:58:41.150Z,32.27
2023-01-01T00:59:42.073Z,32.23
2023-01-01T01:00:41.125Z,32.20
2023-01-01T01:01:41.298Z,32.18
2023-01-01T01:02:41.378Z,32.16
2023-01-01T01:03:41.101Z,32.14
2023-01-01T01:04:41.122Z,32.12
2023-01-01T01:05:41.082Z,32.11
2023-01-01T01:06:41.090Z,32.10
2023-01-01T01:07:41.063Z,32.09
2023-01-01T01:08:41.052Z,32.11
2023-01-01T01:09:41.046Z,32.08
2023-01-01T01:10:41.065Z,32.11
2023-01-01T01:11:41.026Z,32.10
2023-01-01T01:12:41.024Z,32.08
2023-01-01T01:13:41.009Z,32.09
2023-01-01T01:14:40.999Z,32.08
2023-01-01T01:15:40.996Z,32.11
2023-01-01T01:16:41.024Z,32.09
2023-01-01T01:17:40.966Z,32.08
2023-01-01T01:18:41.002Z,32.09
2023-01-01T01:19:40.989Z,32.12
2023-01-01T01:20:40.939Z,32.08
2023-01-01T01:21:40.948Z,32.09
2023-01-01T01:22:40.923Z,32.07
2023-01-01T01:23:40.913Z,32.09
2023-01-01T01:24:40.908Z,32.06
2023-01-01T01:25:40.897Z,32.06
2023-01-01T01:26:40.914Z,32.06
2023-01-01T01:27:40.875Z,32.09
2023-01-01T01:28:45.515Z,32.07
2023-01-01T01:29:40.860Z,32.07
2023-01-01T01:30:40.911Z,32.08
2023-01-01T01:31:40.838Z,32.07
2023-01-01T01:32:40.833Z,32.07
2023-01-01T01:33:40.823Z,32.07
2023-01-01T01:34:40.812Z,32.08
2023-01-01T01:35:40.801Z,32.08
2023-01-01T01:36:40.798Z,32.07
2023-01-01T01:37:40.782Z,32.07
2023-01-01T01:38:40.781Z,32.05
2023-01-01T01:39:40.796Z,32.05
2023-01-01T01:40:40.761Z,32.06
2023-01-01T01:41:40.748Z,32.05
2023-01-01T01:42:40.791Z,32.06
2023-01-01T01:43:40.736Z,32.06
2023-01-01T01:44:40.719Z,32.06
2023-01-01T01:45:40.740Z,32.06
2023-01-01T01:46:40.705Z,32.09
2023-01-01T01:47:40.709Z,32.07
2023-01-01T01:48:40.703Z,32.06
2023-01-01T01:49:40.678Z,32.06
2023-01-01T01:50:40.675Z,32.04
2023-01-01T01:51:40.656Z,32.05
2023-01-01T01:52:40.654Z,32.05
2023-01-01T01:53:40.642Z,32.04
2023-01-01T01:54:40.631Z,32.03
2023-01-01T01:55:40.621Z,32.04
2023-01-01T01:56:40.611Z,32.04
2023-01-01T01:57:40.613Z,32.01
2023-01-01T01:58:40.612Z,32.03
2023-01-01T01:59:40.591Z,32.04
2023-01-01T02:00:40.587Z,32.04
2023-01-01T02:01:40.734Z,32.05
2023-01-01T02:02:40.682Z,32.03
2023-01-01T02:03:40.594Z,32.04
2023-01-01T02:04:40.535Z,32.03
2023-01-01T02:05:40.547Z,32.03
2023-01-01T02:06:40.522Z,32.03
2023-01-01T02:07:40.508Z,32.01
2023-01-01T02:08:40.511Z,32.02
2023-01-01T02:09:40.492Z,32.00
2023-01-01T02:10:40.493Z,32.02
2023-01-01T02:11:40.505Z,32.01
2023-01-01T02:12:40.468Z,32.02
2023-01-01T02:13:40.465Z,32.02
2023-01-01T02:14:40.484Z,32.03
2023-01-01T02:15:40.470Z,32.02
2023-01-01T02:16:40.440Z,32.02
2023-01-01T02:17:40.430Z,32.02
2023-01-01T02:18:40.438Z,32.04
2023-01-01T02:19:40.404Z,32.05
2023-01-01T02:20:40.384Z,32.02
2023-01-01T02:21:40.381Z,32.01
2023-01-01T02:22:40.370Z,32.02
2023-01-01T02:23:40.370Z,32.00
2023-01-01T02:24:40.354Z,32.01
2023-01-01T02:25:40.343Z,32.02
2023-01-01T02:26:40.334Z,32.01
2023-01-01T02:27:40.329Z,32.01
2023-01-01T02:28:40.315Z,32.01
2023-01-01T02:29:40.307Z,32.01
2023-01-01T02:30:40.343Z,32.03
2023-01-01T02:31:40.348Z,32.01
2023-01-01T02:32:40.279Z,32.02
2023-01-01T02:33:40.272Z,32.03
2023-01-01T02:34:40.261Z,32.00
2023-01-01T02:35:40.259Z,32.03
2023-01-01T02:36:40.248Z,32.02
2023-01-01T02:37:40.231Z,32.00
2023-01-01T02:38:40.222Z,32.00
2023-01-01T02:39:40.216Z,32.01
2023-01-01T02:40:40.209Z,32.01
2023-01-01T02:41:40.196Z,32.00
2023-01-01T02:42:40.188Z,32.04
2023-01-01T02:43:40.199Z,32.01
2023-01-01T02:44:40.170Z,32.02
2023-01-01T02:45:40.166Z,32.02
2023-01-01T02:46:40.173Z,32.04
2023-01-01T02:47:40.147Z,32.02
2023-01-01T02:48:40.147Z,32.01
2023-01-01T02:49:40.121Z,31.98
2023-01-01T02:50:40.113Z,32.00
2023-01-01T02:51:40.113Z,32.01
2023-01-01T02:52:40.100Z,32.01
2023-01-01T02:53:40.081Z,32.02
2023-01-01T02:54:40.078Z,32.02
2023-01-01T02:55:40.068Z,32.00
2023-01-01T02:56:40.059Z,32.01
2023-01-01T02:57:40.050Z,32.02
2023-01-01T02:58:40.051Z,32.02
2023-01-01T02:59:40.037Z,31.99
2023-01-01T03:00:40.027Z,32.01
2023-01-01T03:01:40.109Z,31.99
2023-01-01T03:02:43.944Z,32.00
2023-01-01T03:03:40.111Z,32.03
2023-01-01T03:04:39.984Z,32.04
2023-01-01T03:05:39.993Z,32.01
2023-01-01T03:06:40.116Z,32.02
2023-01-01T03:07:39.955Z,32.02
2023-01-01T03:08:39.954Z,32.02
2023-01-01T03:09:39.945Z,32.01
2023-01-01T03:10:39.929Z,32.01
2023-01-01T03:11:39.922Z,31.99
2023-01-01T03:12:40.055Z,31.99
2023-01-01T03:13:39.901Z,32.00
2023-01-01T03:14:39.893Z,32.00
2023-01-01T03:15:39.912Z,32.01
2023-01-01T03:16:39.874Z,31.99
2023-01-01T03:17:39.879Z,32.00
2023-01-01T03:18:39.877Z,31.99
2023-01-01T03:19:39.848Z,32.00
2023-01-01T03:20:39.837Z,32.00
2023-01-01T03:21:39.832Z,32.01
2023-01-01T03:23:42.142Z,31.98
2023-01-01T03:24:39.797Z,32.00
2023-01-01T03:25:39.802Z,32.02
2023-01-01T03:26:39.783Z,32.01
2023-01-01T03:27:39.781Z,32.00
2023-01-01T03:28:39.764Z,32.01
2023-01-01T03:29:39.760Z,32.00
2023-01-01T03:30:39.754Z,32.00
2023-01-01T03:31:39.769Z,32.01
2023-01-01T03:32:39.732Z,32.00
2023-01-01T03:33:39.727Z,32.00
2023-01-01T03:34:39.750Z,31.99
2023-01-01T03:35:39.698Z,31.99
2023-01-01T03:36:39.686Z,32.01
2023-01-01T03:37:39.683Z,31.99
2023-01-01T03:38:39.674Z,31.99
2023-01-01T04:08:39.409Z,31.96
2023-01-01T04:31:39.187Z,31.96
2023-01-01T05:32:38.623Z,31.93
2023-01-01T05:33:38.614Z,31.93
2023-01-01T05:34:38.602Z,31.92
2023-01-01T05:50:38.453Z,31.93
2023-01-01T05:52:38.438Z,31.92
2023-01-01T05:54:38.419Z,31.91
2023-01-01T05:59:38.373Z,31.87
2023-01-01T06:00:38.364Z,31.89
2023-01-01T06:01:45.085Z,31.91
2023-01-01T06:02:38.400Z,31.93
2023-01-01T06:03:38.343Z,31.91
2023-01-01T06:04:38.432Z,31.92
2023-01-01T06:05:38.317Z,31.91
2023-01-01T06:06:38.304Z,31.92
2023-01-01T06:07:42.047Z,31.91
2023-01-01T06:08:38.296Z,31.93
2023-01-01T06:09:38.283Z,31.92
2023-01-01T06:10:38.281Z,31.92
2023-01-01T06:11:38.259Z,31.91
2023-01-01T06:12:38.253Z,31.90
2023-01-01T06:13:38.246Z,31.89
2023-01-01T06:14:38.267Z,31.90
2023-01-01T06:15:38.227Z,31.89
2023-01-01T06:16:38.261Z,31.89
2023-01-01T06:17:38.208Z,31.90
2023-01-01T06:18:38.200Z,31.88
2023-01-01T06:19:38.194Z,31.90
2023-01-01T06:20:38.182Z,31.91
2023-01-01T06:21:38.175Z,31.89
2023-01-01T06:22:38.160Z,31.89
2023-01-01T06:23:38.163Z,31.88
2023-01-01T06:24:39.335Z,31.89
2023-01-01T06:25:38.132Z,31.89
2023-01-01T06:26:38.130Z,31.90
2023-01-01T06:27:38.123Z,31.89
2023-01-01T06:28:38.105Z,31.89
2023-01-01T06:29:38.100Z,31.89
2023-01-01T06:30:38.140Z,31.88
2023-01-01T06:31:40.871Z,31.89
2023-01-01T06:32:38.078Z,31.91
2023-01-01T06:33:38.058Z,31.87
2023-01-01T06:34:38.049Z,31.91
2023-01-01T06:35:38.038Z,31.92
2023-01-01T06:36:38.064Z,31.90
2023-01-01T06:37:38.026Z,31.88
2023-01-01T06:38:38.015Z,31.90
2023-01-01T06:39:38.004Z,31.90
2023-01-01T06:40:37.997Z,31.90
2023-01-01T06:41:37.983Z,31.89
2023-01-01T06:42:37.979Z,31.93
2023-01-01T06:43:37.975Z,31.90
2023-01-01T06:44:37.970Z,31.90
2023-01-01T06:45:37.956Z,31.93
2023-01-01T06:46:38.014Z,31.90
2023-01-01T06:47:37.942Z,31.92
2023-01-01T06:48:37.928Z,31.91
2023-01-01T06:49:37.912Z,31.90
2023-01-01T06:50:37.901Z,31.91
2023-01-01T06:51:37.905Z,31.90
2023-01-01T06:52:37.915Z,31.91
2023-01-01T06:53:37.877Z,31.88
2023-01-01T06:54:37.864Z,31.91
2023-01-01T06:55:37.861Z,31.90
2023-01-01T06:56:37.867Z,31.90
2023-01-01T06:57:37.846Z,31.92
2023-01-01T06:58:37.831Z,31.90
2023-01-01T06:59:37.825Z,31.92
2023-01-01T07:00:37.847Z,31.93
2023-01-01T07:01:37.944Z,31.91
2023-01-01T07:02:38.115Z,31.94
2023-01-01T07:03:38.790Z,31.93
2023-01-01T07:04:37.776Z,31.93
2023-01-01T07:05:37.770Z,31.93
2023-01-01T07:06:37.760Z,31.93
2023-01-01T07:07:37.743Z,31.92
2023-01-01T07:08:37.740Z,31.93
2023-01-01T07:09:37.727Z,31.92
2023-01-01T07:10:37.725Z,31.92
2023-01-01T07:11:37.714Z,31.93
2023-01-01T07:12:37.707Z,31.95
2023-01-01T07:13:37.695Z,31.94
2023-01-01T07:14:37.681Z,31.93
2023-01-01T07:15:37.738Z,31.92
2023-01-01T07:16:37.724Z,31.93
2023-01-01T07:17:37.662Z,31.94
2023-01-01T07:18:37.668Z,31.94
2023-01-01T07:19:37.638Z,31.95
2023-01-01T07:20:37.628Z,31.95
2023-01-01T07:21:37.620Z,31.93
2023-01-01T07:22:37.608Z,31.93
2023-01-01T07:23:37.600Z,31.92
2023-01-01T07:24:37.587Z,31.94
2023-01-01T07:25:37.615Z,31.96
2023-01-01T07:26:37.570Z,31.94
2023-01-01T07:27:37.578Z,31.94
2023-01-01T07:28:37.551Z,31.96
2023-01-01T07:29:37.546Z,31.93
2023-01-01T07:30:37.533Z,31.95
2023-01-01T07:31:37.650Z,31.93
2023-01-01T07:32:37.530Z,31.95
2023-01-01T07:33:37.517Z,31.94
2023-01-01T07:34:37.521Z,31.93
2023-01-01T07:35:37.495Z,31.94
2023-01-01T07:36:37.477Z,31.96
2023-01-01T07:37:37.468Z,31.96
2023-01-01T07:38:37.463Z,31.96
2023-01-01T07:39:37.456Z,31.97
2023-01-01T07:40:37.445Z,31.95
2023-01-01T07:41:37.434Z,31.96
2023-01-01T07:42:37.425Z,31.95
2023-01-01T07:43:37.430Z,31.96
2023-01-01T07:44:37.406Z,31.96
2023-01-01T07:45:37.394Z,31.94
2023-01-01T07:46:37.504Z,31.96
2023-01-01T07:47:37.377Z,31.98
2023-01-01T07:48:40.169Z,31.97
2023-01-01T07:49:37.410Z,31.98
2023-01-01T07:50:37.376Z,31.96
2023-01-01T07:51:37.348Z,31.98
2023-01-01T07:52:37.330Z,31.94
2023-01-01T07:53:37.321Z,31.96
2023-01-01T07:54:37.313Z,31.96
2023-01-01T07:55:37.304Z,31.97
2023-01-01T07:56:37.324Z,31.97
2023-01-01T07:57:37.288Z,31.97
2023-01-01T07:58:37.275Z,31.96
2023-01-01T07:59:37.276Z,31.98
2023-01-01T08:00:37.254Z,31.98
2023-01-01T08:01:37.470Z,31.99
2023-01-01T08:02:37.382Z,31.97
2023-01-01T08:03:37.287Z,31.96
2023-01-01T08:04:37.220Z,31.98
2023-01-01T08:05:37.209Z,31.99
2023-01-01T08:06:37.225Z,31.99
2023-01-01T08:07:37.193Z,31.99
2023-01-01T08:08:37.183Z,31.98
2023-01-01T08:09:37.183Z,31.98
2023-01-01T08:10:37.164Z,31.99
2023-01-01T08:11:37.156Z,32.00
2023-01-01T08:12:37.146Z,31.97
2023-01-01T08:13:37.132Z,31.98
2023-01-01T08:14:37.132Z,31.98
2023-01-01T08:15:37.135Z,31.98
2023-01-01T08:16:37.115Z,32.00
2023-01-01T08:17:42.595Z,31.98
2023-01-01T08:18:37.093Z,31.98
2023-01-01T08:19:37.100Z,31.98
2023-01-01T08:20:37.102Z,32.00
2023-01-01T08:21:37.064Z,31.98
2023-01-01T08:22:37.078Z,31.98
2023-01-01T08:23:37.053Z,31.96
2023-01-01T08:24:37.035Z,31.95
2023-01-01T08:25:37.026Z,31.98
2023-01-01T08:26:37.031Z,31.99
2023-01-01T08:27:37.048Z,31.99
2023-01-01T08:28:37.006Z,32.00
2023-01-01T08:29:36.991Z,31.99
2023-01-01T08:30:36.980Z,31.99
2023-01-01T08:31:37.016Z,31.99
2023-01-01T08:32:36.963Z,31.99
2023-01-01T08:33:36.953Z,31.99
2023-01-01T08:34:36.942Z,32.00
2023-01-01T08:35:36.934Z,31.99
2023-01-01T08:36:36.926Z,31.99
2023-01-01T08:37:36.921Z,32.00
2023-01-01T08:38:36.942Z,32.00
2023-01-01T08:39:36.898Z,32.01
2023-01-01T08:40:36.885Z,31.99
2023-01-01T08:41:36.913Z,32.01
2023-01-01T08:42:36.868Z,31.98
2023-01-01T08:43:36.857Z,31.99
2023-01-01T08:44:36.850Z,31.99
2023-01-01T08:45:36.843Z,31.99
2023-01-01T08:46:36.891Z,31.99
2023-01-01T08:47:36.843Z,32.01
2023-01-01T08:48:36.816Z,32.01
2023-01-01T08:49:36.806Z,32.00
2023-01-01T08:50:36.800Z,32.00
2023-01-01T08:51:36.785Z,32.00
2023-01-01T08:52:36.785Z,32.01
2023-01-01T08:53:36.769Z,31.99
2023-01-01T08:54:36.783Z,32.02
2023-01-01T08:55:36.758Z,32.00
2023-01-01T08:56:36.738Z,32.01
2023-01-01T08:57:36.739Z,32.01
2023-01-01T08:58:36.726Z,32.01
2023-01-01T08:59:36.723Z,32.00
2023-01-01T09:00:36.760Z,32.01
2023-01-01T09:01:36.818Z,32.02
2023-01-01T09:02:36.948Z,32.02
2023-01-01T09:03:36.789Z,32.03
2023-01-01T09:04:36.744Z,32.02
2023-01-01T09:05:36.679Z,32.02
2023-01-01T09:06:36.658Z,32.02
2023-01-01T09:07:36.637Z,32.02
2023-01-01T09:08:36.629Z,32.01
2023-01-01T09:09:36.659Z,32.00
2023-01-01T09:10:36.640Z,32.01
2023-01-01T09:11:36.606Z,32.02
2023-01-01T09:12:36.591Z,31.99
2023-01-01T09:13:36.585Z,32.00
2023-01-01T09:14:36.570Z,31.99
2023-01-01T09:15:36.563Z,32.02
2023-01-01T09:16:43.720Z,32.01
2023-01-01T09:17:36.548Z,32.04
2023-01-01T09:18:36.704Z,32.04
2023-01-01T09:19:36.524Z,32.02
2023-01-01T09:20:36.516Z,32.00
2023-01-01T09:21:36.506Z,32.01
2023-01-01T09:22:36.503Z,32.02
2023-01-01T09:23:36.491Z,32.03
2023-01-01T09:24:36.487Z,32.03
2023-01-01T09:25:36.477Z,32.02
2023-01-01T09:26:36.484Z,32.04
2023-01-01T09:27:36.453Z,32.00
2023-01-01T09:28:36.456Z,32.01
2023-01-01T09:29:36.447Z,32.00
2023-01-01T13:24:34.270Z,31.97
2023-01-01T13:25:34.261Z,32.00
2023-01-01T13:26:34.371Z,31.99
2023-01-01T13:27:34.294Z,32.01
2023-01-01T13:28:34.235Z,32.01
2023-01-01T13:29:34.222Z,32.00
2023-01-01T13:30:34.215Z,32.01
2023-01-01T13:31:34.279Z,32.01
2023-01-01T13:32:34.201Z,32.00
2023-01-01T13:33:34.192Z,32.01
2023-01-01T13:34:34.187Z,32.01
2023-01-01T13:35:34.169Z,32.02
2023-01-01T13:36:34.162Z,32.02
2023-01-01T13:37:34.169Z,32.01
2023-01-01T13:38:34.143Z,32.03
2023-01-01T13:39:34.145Z,32.04
2023-01-01T13:40:34.163Z,32.05
2023-01-01T13:41:34.116Z,32.05
2023-01-01T13:42:34.129Z,32.05
2023-01-01T13:43:34.097Z,32.04
2023-01-01T13:44:34.086Z,32.03
2023-01-01T13:46:10.588Z,32.06
2023-01-01T13:46:34.222Z,32.07
2023-01-01T13:47:34.058Z,32.06
2023-01-01T13:48:34.052Z,32.05
2023-01-01T13:49:34.041Z,32.06
2023-01-01T13:50:34.036Z,32.07
2023-01-01T13:52:04.281Z,32.07
2023-01-01T13:52:34.015Z,32.10
2023-01-01T13:53:34.005Z,32.09
2023-01-01T13:54:34.000Z,32.08
2023-01-01T13:55:33.984Z,32.07
2023-01-01T13:56:33.977Z,32.09
2023-01-01T13:57:33.967Z,32.09
2023-01-01T13:58:33.998Z,32.10
2023-01-01T13:59:33.947Z,32.09
2023-01-01T14:00:34.061Z,32.09
2023-01-01T14:01:34.107Z,32.11
2023-01-01T14:02:34.040Z,32.11
2023-01-01T14:03:33.914Z,32.12
2023-01-01T14:04:33.899Z,32.11
2023-01-01T14:05:33.901Z,32.13
2023-01-01T14:06:33.881Z,32.12
2023-01-01T14:07:50.696Z,32.11
2023-01-01T14:08:33.872Z,32.14
2023-01-01T14:09:33.889Z,32.13
2023-01-01T14:10:34.846Z,32.13
2023-01-01T14:11:33.836Z,32.14
2023-01-01T14:12:33.826Z,32.14
2023-01-01T14:13:33.825Z,32.14
2023-01-01T14:14:33.836Z,32.13
2023-01-01T14:15:33.808Z,32.12
2023-01-01T14:16:33.893Z,32.13
2023-01-01T14:17:33.783Z,32.12
2023-01-01T14:18:33.810Z,32.15
2023-01-01T14:19:33.762Z,32.14
2023-01-01T14:20:33.761Z,32.15
2023-01-01T14:21:33.748Z,32.14
2023-01-01T14:22:33.746Z,32.17
2023-01-01T14:23:33.726Z,32.16
2023-01-01T14:24:33.723Z,32.17
2023-01-01T14:25:33.707Z,32.16
2023-01-01T14:26:33.710Z,32.15
2023-01-01T14:27:33.688Z,32.18
2023-01-01T14:28:33.682Z,32.17
2023-01-01T14:29:33.677Z,32.15
2023-01-01T14:30:33.686Z,32.19
2023-01-01T14:31:33.705Z,32.17
2023-01-01T14:32:33.644Z,32.16
2023-01-01T14:33:33.637Z,32.18
2023-01-01T14:34:33.642Z,32.19
2023-01-01T14:35:33.614Z,32.18
2023-01-01T14:36:33.606Z,32.20
2023-01-01T14:37:33.599Z,32.16
2023-01-01T14:38:33.595Z,32.20
2023-01-01T14:39:33.583Z,32.18
2023-01-01T14:40:33.568Z,32.19
2023-01-01T14:41:33.560Z,32.17
2023-01-01T14:42:33.550Z,32.19
2023-01-01T14:43:33.544Z,32.22
2023-01-01T14:44:33.539Z,32.21
2023-01-01T14:45:33.536Z,32.21
2023-01-01T14:46:33.548Z,32.23
2023-01-01T14:47:33.507Z,32.22
2023-01-01T14:48:33.497Z,32.21
2023-01-01T14:49:33.492Z,32.23
2023-01-01T14:50:33.477Z,32.21
2023-01-01T14:51:33.468Z,32.24
2023-01-01T14:52:33.463Z,32.24
2023-01-01T14:53:33.469Z,32.22
2023-01-01T14:54:33.445Z,32.21
2023-01-01T14:55:33.431Z,32.25
2023-01-01T14:56:33.424Z,32.25
2023-01-01T14:57:33.428Z,32.23
2023-01-01T14:58:33.405Z,32.25
2023-01-01T14:59:33.411Z,32.25
2023-01-01T15:00:33.390Z,32.23
2023-01-01T15:01:33.531Z,32.24
2023-01-01T15:02:33.585Z,32.23
2023-01-01T15:03:33.371Z,32.22
2023-01-01T15:04:33.355Z,32.23
2023-01-01T15:05:35.706Z,32.24
2023-01-01T15:06:33.332Z,32.25
2023-01-01T15:07:33.321Z,32.23
2023-01-01T15:08:33.312Z,32.25
2023-01-01T15:09:33.300Z,32.24
2023-01-01T15:10:33.301Z,32.25
2023-01-01T15:11:33.282Z,32.26
2023-01-01T15:12:33.278Z,32.24
2023-01-01T15:13:33.265Z,32.23
2023-01-01T15:14:33.254Z,32.28
2023-01-01T15:15:33.251Z,32.28
2023-01-01T15:16:39.967Z,32.27
2023-01-01T15:17:33.230Z,32.27
2023-01-01T15:18:33.241Z,32.28
2023-01-01T15:19:33.211Z,32.27
2023-01-01T15:20:33.201Z,32.27
2023-01-01T15:21:33.195Z,32.26
2023-01-01T15:22:33.187Z,32.28
2023-01-01T15:23:33.175Z,32.28
2023-01-01T15:24:33.163Z,32.29
2023-01-01T15:25:33.155Z,32.29
2023-01-01T15:26:33.144Z,32.30
2023-01-01T15:27:33.140Z,32.26
2023-01-01T15:28:33.127Z,32.29
2023-01-01T15:29:33.145Z,32.29
2023-01-01T15:30:33.112Z,32.27
2023-01-01T15:31:33.147Z,32.30
2023-01-01T15:32:33.100Z,32.29
2023-01-01T15:33:33.081Z,32.30
2023-01-01T15:34:33.108Z,32.29
2023-01-01T15:35:33.061Z,32.29
2023-01-01T15:36:33.063Z,32.29
2023-01-01T15:37:33.049Z,32.28
2023-01-01T15:38:33.035Z,32.28
2023-01-01T15:39:33.064Z,32.29
2023-01-01T15:40:33.027Z,32.29
2023-01-01T15:41:33.007Z,32.31
2023-01-01T15:42:33.017Z,32.32
2023-01-01T15:43:32.989Z,32.30
2023-01-01T15:44:32.987Z,32.31
2023-01-01T15:45:33.010Z,32.30
2023-01-01T15:46:32.990Z,32.31
2023-01-01T15:47:32.955Z,32.33
2023-01-01T15:48:32.949Z,32.34
2023-01-01T15:49:32.932Z,32.31
2023-01-01T15:50:32.968Z,32.31
2023-01-01T15:51:32.914Z,32.32
2023-01-01T15:52:32.906Z,32.33
2023-01-01T15:53:32.896Z,32.33
2023-01-01T15:54:32.886Z,32.32
2023-01-01T15:55:32.911Z,32.33
2023-01-01T15:56:32.869Z,32.35
2023-01-01T15:57:32.860Z,32.36
2023-01-01T15:58:32.861Z,32.33
2023-01-01T15:59:32.842Z,32.33
2023-01-01T16:00:32.833Z,32.35
2023-01-01T16:01:32.951Z,32.35
2023-01-01T16:02:33.047Z,32.35
2023-01-01T16:03:32.847Z,32.33
2023-01-01T16:04:32.810Z,32.34
2023-01-01T16:05:32.789Z,32.33
2023-01-01T16:06:32.808Z,32.35
2023-01-01T16:07:32.883Z,32.34
2023-01-01T16:08:32.761Z,32.36
2023-01-01T16:09:32.756Z,32.35
2023-01-01T16:10:32.752Z,32.34
2023-01-01T16:11:32.732Z,32.36
2023-01-01T16:12:32.728Z,32.35
2023-01-01T16:13:32.717Z,32.35
2023-01-01T16:14:32.706Z,32.36
2023-01-01T16:15:32.709Z,32.34
2023-01-01T16:16:32.774Z,32.36
2023-01-01T16:17:32.675Z,32.34
2023-01-01T16:18:32.671Z,32.35
2023-01-01T16:19:32.681Z,32.33
2023-01-01T16:20:32.652Z,32.36
2023-01-01T16:21:32.640Z,32.36
2023-01-01T16:22:36.563Z,32.36
2023-01-01T16:23:32.627Z,32.38
2023-01-01T16:24:32.615Z,32.34
2023-01-01T16:25:32.604Z,32.34
2023-01-01T16:26:32.606Z,32.33
2023-01-01T16:27:32.585Z,32.36
2023-01-01T16:28:32.577Z,32.34
2023-01-01T16:29:32.568Z,32.34
2023-01-01T16:30:32.570Z,32.34
2023-01-01T16:31:32.547Z,32.32
2023-01-01T16:32:32.540Z,32.31
2023-01-01T16:33:32.563Z,32.33
2023-01-01T16:34:32.523Z,32.31
2023-01-01T16:35:32.514Z,32.32
2023-01-01T16:36:32.504Z,32.30
2023-01-01T16:37:32.496Z,32.33
2023-01-01T16:38:32.512Z,32.30
2023-01-01T16:39:32.473Z,32.33
2023-01-01T16:40:37.478Z,32.31
2023-01-01T16:41:32.463Z,32.32
2023-01-01T16:42:32.446Z,32.32
2023-01-01T16:43:32.437Z,32.30
2023-01-01T16:44:32.434Z,32.31
2023-01-01T16:45:32.414Z,32.28
2023-01-01T16:46:32.409Z,32.27
2023-01-01T16:47:32.400Z,32.26
2023-01-01T16:48:32.391Z,32.27
2023-01-01T16:49:32.418Z,32.28
2023-01-01T16:50:32.412Z,32.30
2023-01-01T16:51:32.408Z,32.28
2023-01-01T16:52:33.801Z,32.28
2023-01-01T16:53:32.465Z,32.29
2023-01-01T16:54:32.483Z,32.29
2023-01-01T16:55:32.446Z,32.28
2023-01-01T16:56:32.446Z,32.29
2023-01-01T16:57:32.438Z,32.27
2023-01-01T16:58:48.853Z,32.28
2023-01-01T16:59:32.437Z,32.26
2023-01-01T17:00:32.430Z,32.28
2023-01-01T17:01:32.729Z,32.29
2023-01-01T17:02:32.475Z,32.29
2023-01-01T17:03:32.386Z,32.28
2023-01-01T17:04:32.374Z,32.28
2023-01-01T17:05:32.353Z,32.29
2023-01-01T17:06:32.346Z,32.28
2023-01-01T17:07:32.370Z,32.29
2023-01-01T17:08:32.357Z,32.27
2023-01-01T17:09:32.357Z,32.28
2023-01-01T17:10:32.350Z,32.27
2023-01-01T17:11:32.298Z,32.27
2023-01-01T17:12:32.291Z,32.28
2023-01-01T17:13:32.351Z,32.27
2023-01-01T17:14:32.301Z,32.26
2023-01-01T17:15:32.425Z,32.29
2023-01-01T17:16:38.794Z,32.28
2023-01-01T17:17:32.243Z,32.27
2023-01-01T17:19:04.287Z,32.27
2023-01-01T17:19:32.234Z,32.30
2023-01-01T17:20:32.220Z,32.29
2023-01-01T17:21:32.208Z,32.28
2023-01-01T17:22:34.395Z,32.30
2023-01-01T17:23:32.197Z,32.29
2023-01-01T17:24:32.196Z,32.30
2023-01-01T17:25:32.170Z,32.31
2023-01-01T17:26:32.236Z,32.29
2023-01-01T17:27:32.907Z,32.27
2023-01-01T17:28:32.166Z,32.27
2023-01-01T17:29:32.132Z,32.29
2023-01-01T17:30:32.125Z,32.26
2023-01-01T17:31:32.194Z,32.26
2023-01-01T17:32:32.118Z,32.27
2023-01-01T17:33:32.098Z,32.25
2023-01-01T17:34:32.092Z,32.25
2023-01-01T17:35:33.440Z,32.27
2023-01-01T17:36:32.079Z,32.27
2023-01-01T17:37:32.061Z,32.25
2023-01-01T17:38:32.051Z,32.25
2023-01-01T17:39:32.042Z,32.28
2023-01-01T17:40:36.688Z,32.24
2023-01-01T17:41:32.032Z,32.27
2023-01-01T17:42:32.038Z,32.26
2023-01-01T17:43:32.005Z,32.26
2023-01-01T17:44:31.998Z,32.26
2023-01-01T17:45:31.985Z,32.25
2023-01-01T17:46:32.044Z,32.26
2023-01-01T17:47:33.292Z,32.27
2023-01-01T17:48:31.961Z,32.29
2023-01-01T17:49:31.953Z,32.27
2023-01-01T17:50:31.951Z,32.26
2023-01-01T17:51:32.081Z,32.27
2023-01-01T17:52:31.923Z,32.26
2023-01-01T17:53:31.922Z,32.27
2023-01-01T17:54:31.904Z,32.26
2023-01-01T17:55:31.907Z,32.24
2023-01-01T17:56:31.883Z,32.26
2023-01-01T17:57:31.881Z,32.27
2023-01-01T17:58:35.292Z,32.26
2023-01-01T17:59:31.856Z,32.27
2023-01-01T18:00:31.866Z,32.27
2023-01-01T18:01:32.192Z,32.25
2023-01-01T18:02:32.046Z,32.24
2023-01-01T18:03:31.883Z,32.23
2023-01-01T18:04:31.816Z,32.24
2023-01-01T18:05:31.807Z,32.23
2023-01-01T18:06:31.798Z,32.23
2023-01-01T18:07:31.784Z,32.25
2023-01-01T18:08:31.790Z,32.26
2023-01-01T18:09:31.767Z,32.25
2023-01-01T18:10:31.759Z,32.26
2023-01-01T18:11:31.749Z,32.25
2023-01-01T18:12:31.740Z,32.24
2023-01-01T18:13:31.728Z,32.25
2023-01-01T18:14:31.753Z,32.23
2023-01-01T18:15:31.719Z,32.24
2023-01-01T18:16:31.701Z,32.25
2023-01-01T18:17:31.716Z,32.25
2023-01-01T18:18:31.682Z,32.23
2023-01-01T18:19:31.706Z,32.21
2023-01-01T18:20:31.663Z,32.25
2023-01-01T18:21:31.657Z,32.25
2023-01-01T18:22:31.655Z,32.23
2023-01-01T18:23:31.637Z,32.22
2023-01-01T18:24:31.729Z,32.20
2023-01-01T18:25:32.430Z,32.23
2023-01-01T18:26:31.623Z,32.23
2023-01-01T18:27:31.608Z,32.23
2023-01-01T18:28:31.611Z,32.23
2023-01-01T18:29:31.609Z,32.25
2023-01-01T18:30:31.612Z,32.24
2023-01-01T18:31:31.617Z,32.23
2023-01-01T18:32:31.561Z,32.23
2023-01-01T18:33:31.553Z,32.21
2023-01-01T18:34:31.549Z,32.21
2023-01-01T18:35:31.545Z,32.23
2023-01-01T18:36:31.555Z,32.20
2023-01-01T18:37:31.508Z,32.20
2023-01-01T18:38:31.505Z,32.20
2023-01-01T18:39:31.503Z,32.21
2023-01-01T18:40:31.492Z,32.22
2023-01-01T18:41:31.472Z,32.21
2023-01-01T18:42:34.899Z,32.23
2023-01-01T18:43:31.457Z,32.22
2023-01-01T18:44:31.442Z,32.23
2023-01-01T18:45:31.434Z,32.21
2023-01-01T18:46:31.559Z,32.23
2023-01-01T18:47:31.449Z,32.19
2023-01-01T18:48:31.405Z,32.20
2023-01-01T18:49:31.395Z,32.21
2023-01-01T18:50:31.387Z,32.21
2023-01-01T18:51:31.413Z,32.20
2023-01-01T18:52:31.403Z,32.21
2023-01-01T18:53:31.361Z,32.20
2023-01-01T18:54:31.350Z,32.24
2023-01-01T18:55:31.351Z,32.20
2023-01-01T18:56:31.701Z,32.25
2023-01-01T18:57:31.324Z,32.20
2023-01-01T18:58:31.320Z,32.22
2023-01-01T18:59:31.319Z,32.23
2023-01-01T19:00:31.423Z,32.23
2023-01-01T19:01:31.500Z,32.21
2023-01-01T19:02:31.400Z,32.20
2023-01-01T19:03:36.030Z,32.24
2023-01-01T19:04:31.261Z,32.24
2023-01-01T19:05:31.250Z,32.23
2023-01-01T19:06:31.254Z,32.23
2023-01-01T19:07:31.238Z,32.20
2023-01-01T19:08:31.227Z,32.21
2023-01-01T19:09:31.222Z,32.23
2023-01-01T19:10:31.204Z,32.20
2023-01-01T19:11:31.200Z,32.22
2023-01-01T19:12:31.187Z,32.24
2023-01-01T19:13:31.177Z,32.23
2023-01-01T19:14:31.166Z,32.23
2023-01-01T19:15:31.161Z,32.21
2023-01-01T19:16:31.199Z,32.21
2023-01-01T19:17:31.139Z,32.23
2023-01-01T19:18:31.154Z,32.23
2023-01-01T19:19:31.123Z,32.20
2023-01-01T19:20:31.116Z,32.20
2023-01-01T19:21:31.103Z,32.18
2023-01-01T19:22:31.109Z,32.21
2023-01-01T19:23:31.086Z,32.19
2023-01-01T19:24:31.139Z,32.23
2023-01-01T19:25:31.071Z,32.21
2023-01-01T19:26:31.057Z,32.20
2023-01-01T19:27:31.053Z,32.22
2023-01-01T19:28:31.038Z,32.22
2023-01-01T19:29:31.042Z,32.23
2023-01-01T19:30:31.025Z,32.23
2023-01-01T19:31:31.085Z,32.23
2023-01-01T19:32:30.998Z,32.23
2023-01-01T19:33:30.993Z,32.21
2023-01-01T19:34:31.060Z,32.21
2023-01-01T19:35:30.977Z,32.23
2023-01-01T19:36:30.963Z,32.21
2023-01-01T19:37:30.957Z,32.22
2023-01-01T19:38:30.965Z,32.21
2023-01-01T19:39:30.937Z,32.21
2023-01-01T19:40:30.926Z,32.21
2023-01-01T19:41:30.919Z,32.22
2023-01-01T19:42:30.927Z,32.21
2023-01-01T19:43:30.934Z,32.20
2023-01-01T19:44:30.892Z,32.18
2023-01-01T19:45:30.882Z,32.21
2023-01-01T19:46:30.929Z,32.18
2023-01-01T19:47:30.872Z,32.19
2023-01-01T19:48:30.864Z,32.18
2023-01-01T19:49:30.848Z,32.18